createdAt,value
2018-01-13T00:01:40.698Z,14.20
2018-01-13T00:04:07.175Z,11.68
2018-01-13T00:06:33.685Z,9.23
2018-01-13T00:09:00.136Z,14.73
2018-01-13T00:11:26.580Z,7.03
2018-01-13T00:13:53.035Z,13.18
2018-01-13T00:16:19.635Z,12.25
2018-01-13T00:18:46.140Z,17.80
2018-01-13T00:21:13.295Z,8.85
2018-01-13T00:23:39.884Z,11.30
2018-01-13T00:26:06.371Z,10.40
2018-01-13T00:28:33.564Z,14.00
2018-01-13T00:31:00.171Z,11.95
2018-01-13T00:33:26.654Z,8.25
2018-01-13T00:35:53.171Z,12.90
2018-01-13T00:38:19.670Z,16.77
2018-01-13T00:40:46.202Z,10.10
2018-01-13T00:43:12.709Z,15.30
2018-01-13T00:45:39.158Z,6.45
2018-01-13T00:48:06.383Z,10.23
2018-01-13T00:50:32.818Z,6.55
2018-01-13T00:52:59.274Z,4.40
2018-01-13T00:55:26.551Z,8.88
2018-01-13T00:57:53.000Z,7.93
2018-01-13T01:00:19.571Z,5.90
2018-01-13T01:02:45.996Z,8.10
2018-01-13T01:05:12.558Z,14.20
2018-01-13T01:07:39.040Z,13.65
2018-01-13T01:10:05.478Z,13.55
2018-01-13T01:12:31.956Z,15.70
2018-01-13T01:14:58.495Z,13.85
2018-01-13T01:17:24.963Z,8.07
2018-01-13T01:19:51.513Z,16.65
2018-01-13T01:22:17.946Z,15.90
2018-01-13T01:24:48.199Z,17.85
2018-01-13T01:27:14.670Z,11.75
2018-01-13T01:29:41.868Z,8.35
2018-01-13T01:32:08.370Z,13.82
2018-01-13T01:34:34.909Z,13.57
2018-01-13T01:37:01.474Z,15.27
2018-01-13T01:39:28.682Z,19.00
2018-01-13T01:41:55.866Z,15.35
2018-01-13T01:44:22.381Z,6.45
2018-01-13T01:46:48.891Z,12.05
2018-01-13T01:49:16.164Z,10.30
2018-01-13T01:51:42.654Z,14.77
2018-01-13T01:54:09.904Z,6.43
2018-01-13T01:56:36.350Z,14.73
2018-01-13T01:59:02.974Z,12.57
2018-01-13T02:01:29.438Z,11.43
2018-01-13T02:03:56.790Z,13.00
2018-01-13T02:06:23.993Z,8.60
2018-01-13T02:08:50.465Z,14.48
2018-01-13T02:11:17.652Z,9.90
2018-01-13T02:13:44.057Z,8.70
2018-01-13T02:16:11.234Z,13.80
2018-01-13T02:18:37.686Z,12.32
2018-01-13T02:21:04.166Z,8.77
2018-01-13T02:23:31.319Z,9.93
2018-01-13T02:25:58.518Z,12.85
2018-01-13T02:28:24.992Z,7.37
2018-01-13T02:30:51.498Z,10.60
2018-01-13T02:33:17.997Z,6.62
2018-01-13T02:35:44.399Z,6.37
2018-01-13T02:38:11.554Z,5.90
2018-01-13T02:40:38.760Z,7.80
2018-01-13T02:43:05.207Z,9.75
2018-01-13T02:45:31.903Z,8.05
2018-01-13T02:47:58.336Z,9.82
2018-01-13T02:50:24.782Z,8.75
2018-01-13T02:52:51.253Z,6.57
2018-01-13T02:55:17.796Z,6.87
2018-01-13T02:57:44.235Z,8.38
2018-01-13T03:00:10.883Z,12.80
2018-01-13T03:02:38.082Z,14.15
2018-01-13T03:05:04.531Z,12.65
2018-01-13T03:07:31.002Z,16.52
2018-01-13T03:09:58.176Z,14.48
2018-01-13T03:12:24.590Z,13.52
2018-01-13T03:14:51.782Z,13.90
2018-01-13T03:17:18.250Z,11.80
2018-01-13T03:19:44.719Z,13.00
2018-01-13T03:22:11.130Z,11.40
2018-01-13T03:24:38.278Z,13.70
2018-01-13T03:27:05.506Z,12.90
2018-01-13T03:29:31.976Z,13.20
2018-01-13T03:31:59.216Z,12.55
2018-01-13T03:34:26.390Z,10.55
2018-01-13T03:36:52.961Z,11.50
2018-01-13T03:39:19.549Z,12.52
2018-01-13T03:41:46.733Z,12.85
2018-01-13T03:44:13.179Z,13.65
2018-01-13T03:46:39.711Z,13.95
2018-01-13T03:49:06.215Z,15.00
2018-01-13T03:51:32.615Z,14.43
2018-01-13T03:53:59.206Z,14.00
2018-01-13T03:56:25.778Z,14.65
2018-01-13T03:58:52.246Z,14.95
2018-01-13T04:01:19.438Z,14.27
2018-01-13T04:03:45.878Z,13.50
2018-01-13T04:06:12.444Z,15.48
2018-01-13T04:08:38.944Z,14.15
2018-01-13T04:11:05.375Z,15.05
2018-01-13T04:13:31.885Z,15.70
2018-01-13T04:15:58.370Z,15.57
2018-01-13T04:18:24.824Z,18.02
2018-01-13T04:20:52.007Z,16.77
2018-01-13T04:23:18.476Z,15.85
2018-01-13T04:25:44.918Z,16.17
2018-01-13T04:28:11.409Z,16.52
2018-01-13T04:30:38.011Z,17.33
2018-01-13T04:33:05.260Z,16.62
2018-01-13T04:35:32.438Z,18.42
2018-01-13T04:37:58.939Z,16.17
2018-01-13T04:40:25.389Z,17.80
2018-01-13T04:42:52.538Z,17.23
2018-01-13T04:45:19.769Z,15.40
2018-01-13T04:47:46.194Z,16.27
2018-01-13T04:50:12.652Z,15.43
2018-01-13T04:52:40.056Z,12.15
2018-01-13T04:55:06.622Z,15.10
2018-01-13T04:57:33.123Z,14.55
2018-01-13T04:59:59.618Z,14.68
2018-01-13T05:02:26.846Z,15.70
2018-01-13T05:04:53.292Z,15.02
2018-01-13T05:07:20.506Z,15.10
2018-01-13T05:09:46.961Z,16.95
2018-01-13T05:12:13.375Z,16.67
2018-01-13T05:14:40.223Z,15.82
2018-01-13T05:17:06.738Z,16.05
2018-01-13T05:19:34.903Z,16.92
2018-01-13T05:22:02.115Z,17.23
2018-01-13T05:24:29.321Z,17.67
2018-01-13T05:26:55.757Z,16.55
2018-01-13T05:29:22.198Z,16.20
2018-01-13T05:31:48.684Z,16.65
2018-01-13T05:34:15.121Z,16.80
2018-01-13T05:36:41.614Z,16.30
2018-01-13T05:39:08.078Z,16.50
2018-01-13T05:41:34.565Z,16.67
2018-01-13T05:44:01.034Z,16.87
2018-01-13T05:46:28.207Z,16.35
2018-01-13T05:48:54.734Z,17.70
2018-01-13T05:51:21.153Z,18.17
2018-01-13T05:53:48.325Z,19.75
2018-01-13T05:56:14.993Z,20.70
2018-01-13T05:58:41.401Z,21.65
2018-01-13T06:01:07.902Z,22.23
2018-01-13T06:03:35.082Z,20.83
2018-01-13T06:06:01.535Z,21.55
2018-01-13T06:08:27.999Z,22.40
2018-01-13T06:10:54.446Z,22.52
2018-01-13T06:13:20.976Z,21.37
2018-01-13T06:15:47.402Z,22.90
2018-01-13T06:18:13.877Z,22.13
2018-01-13T06:20:40.274Z,21.92
2018-01-13T06:23:06.722Z,20.92
2018-01-13T06:25:33.913Z,22.05
2018-01-13T06:28:00.347Z,21.98
2018-01-13T06:30:26.835Z,19.67
2018-01-13T06:32:54.042Z,20.02
2018-01-13T06:35:20.514Z,17.17
2018-01-13T06:37:47.699Z,18.77
2018-01-13T06:40:14.146Z,16.52
2018-01-13T06:42:40.598Z,18.02
2018-01-13T06:45:07.028Z,18.98
2018-01-13T06:47:33.477Z,16.87
2018-01-13T06:49:59.978Z,18.37
2018-01-13T06:52:26.511Z,18.23
2018-01-13T06:54:53.010Z,17.98
2018-01-13T06:57:20.188Z,19.23
2018-01-13T06:59:46.674Z,17.52
2018-01-13T07:02:13.126Z,16.17
2018-01-13T07:04:39.560Z,17.77
2018-01-13T07:07:06.754Z,15.55
2018-01-13T07:09:33.245Z,16.58
2018-01-13T07:11:59.824Z,16.58
2018-01-13T07:14:26.258Z,18.17
2018-01-13T07:16:52.707Z,17.10
2018-01-13T07:19:19.187Z,17.48
2018-01-13T07:21:46.339Z,18.55
2018-01-13T07:24:13.824Z,18.55
2018-01-13T07:26:40.278Z,18.35
2018-01-13T07:29:06.703Z,18.92
2018-01-13T07:31:33.219Z,19.45
2018-01-13T07:33:59.707Z,10.80
2018-01-13T07:36:26.203Z,20.73
2018-01-13T07:38:53.638Z,19.58
2018-01-13T07:41:20.094Z,18.15
2018-01-13T07:43:46.613Z,21.55
2018-01-13T07:46:13.155Z,20.05
2018-01-13T07:48:39.615Z,20.40
2018-01-13T07:51:06.030Z,17.62
2018-01-13T07:53:32.587Z,19.08
2018-01-13T07:55:59.085Z,18.62
2018-01-13T07:58:25.686Z,20.58
2018-01-13T08:00:52.160Z,18.62
2018-01-13T08:03:18.642Z,21.73
2018-01-13T08:05:45.156Z,21.77
2018-01-13T08:08:11.626Z,19.65
2018-01-13T08:10:38.847Z,21.20
2018-01-13T08:13:05.298Z,19.67
2018-01-13T08:15:31.778Z,17.30
2018-01-13T08:17:58.246Z,12.52
2018-01-13T08:20:24.801Z,19.60
2018-01-13T08:22:51.298Z,22.20
2018-01-13T08:25:17.838Z,21.65
2018-01-13T08:27:44.370Z,20.50
2018-01-13T08:30:10.896Z,19.62
2018-01-13T08:32:37.427Z,17.05
2018-01-13T08:35:03.885Z,19.70
2018-01-13T08:37:30.321Z,17.50
2018-01-13T08:39:56.761Z,14.57
2018-01-13T08:42:23.223Z,17.15
2018-01-13T08:44:49.776Z,16.25
2018-01-13T08:47:16.194Z,10.93
2018-01-13T08:49:43.451Z,13.25
2018-01-13T08:52:10.626Z,9.93
2018-01-13T08:54:37.181Z,18.80
2018-01-13T08:57:03.652Z,15.40
2018-01-13T08:59:30.216Z,14.25
2018-01-13T09:01:56.680Z,14.63
2018-01-13T09:04:23.117Z,15.77
2018-01-13T09:06:49.550Z,11.43
2018-01-13T09:09:16.012Z,17.50
2018-01-13T09:11:42.453Z,17.73
2018-01-13T09:14:08.930Z,16.85
2018-01-13T09:16:35.357Z,19.52
2018-01-13T09:19:01.870Z,19.10
2018-01-13T09:21:29.210Z,18.65
2018-01-13T09:23:55.619Z,9.50
2018-01-13T09:26:22.163Z,17.05
2018-01-13T09:28:48.595Z,18.98
2018-01-13T09:31:15.152Z,11.32
2018-01-13T09:33:42.394Z,17.62
2018-01-13T09:36:08.940Z,15.65
2018-01-13T09:38:36.163Z,14.38
2018-01-13T09:41:02.721Z,14.32
2018-01-13T09:43:30.367Z,17.23
2018-01-13T09:45:56.814Z,16.80
2018-01-13T09:48:23.298Z,9.68
2018-01-13T09:50:49.877Z,14.87
2018-01-13T09:53:17.185Z,18.40
2018-01-13T09:55:43.922Z,16.30
2018-01-13T09:58:10.840Z,19.20
2018-01-13T10:00:37.330Z,13.55
2018-01-13T10:03:03.835Z,8.40
2018-01-13T10:05:30.291Z,18.42
2018-01-13T10:07:57.470Z,8.98
2018-01-13T10:10:24.044Z,16.33
2018-01-13T10:12:50.530Z,8.00
2018-01-13T10:15:17.242Z,14.38
2018-01-13T10:17:43.757Z,11.57
2018-01-13T10:20:10.210Z,8.05
2018-01-13T10:22:36.716Z,16.15
2018-01-13T10:25:03.230Z,16.00
2018-01-13T10:27:30.555Z,9.43
2018-01-13T10:29:57.105Z,10.70
2018-01-13T10:32:23.649Z,17.60
2018-01-13T10:34:50.961Z,11.75
2018-01-13T10:37:17.536Z,10.05
2018-01-13T10:39:43.973Z,9.35
2018-01-13T10:42:11.717Z,10.05
2018-01-13T10:44:38.965Z,8.18
2018-01-13T10:47:05.421Z,15.48
2018-01-13T10:49:32.564Z,12.70
2018-01-13T10:51:59.366Z,12.23
2018-01-13T10:54:25.832Z,15.60
2018-01-13T10:56:52.398Z,12.25
2018-01-13T10:59:19.715Z,12.50
2018-01-13T11:01:46.182Z,15.18
2018-01-13T11:04:13.366Z,14.73
2018-01-13T11:06:39.874Z,11.60
2018-01-13T11:09:07.508Z,11.20
2018-01-13T11:11:33.943Z,13.07
2018-01-13T11:14:00.473Z,11.48
2018-01-13T11:16:27.023Z,13.30
2018-01-13T11:18:54.278Z,13.25
2018-01-13T11:21:20.808Z,14.02
2018-01-13T11:23:48.226Z,14.57
2018-01-13T11:26:14.681Z,14.00
2018-01-13T11:28:41.350Z,8.77
2018-01-13T11:31:08.002Z,11.50
2018-01-13T11:33:34.477Z,8.75
2018-01-13T11:36:00.956Z,9.20
2018-01-13T11:38:28.102Z,7.12
2018-01-13T11:40:55.344Z,15.60
2018-01-13T11:43:22.527Z,16.67
2018-01-13T11:45:49.070Z,12.02
2018-01-13T11:48:15.599Z,11.02
2018-01-13T11:50:42.107Z,16.62
2018-01-13T11:53:09.398Z,15.00
2018-01-13T11:55:35.909Z,16.70
2018-01-13T11:58:02.765Z,16.77
2018-01-13T12:00:29.296Z,12.55
2018-01-13T12:02:55.792Z,10.10
2018-01-13T12:05:23.093Z,17.48
2018-01-13T12:07:49.568Z,6.07
2018-01-13T12:10:16.034Z,18.27
2018-01-13T12:12:42.666Z,12.27
2018-01-13T12:15:10.023Z,14.80
2018-01-13T12:17:37.298Z,19.05
2018-01-13T12:20:03.878Z,20.30
2018-01-13T12:22:30.988Z,17.15
2018-01-13T12:24:57.573Z,16.75
2018-01-13T12:27:24.216Z,15.10
2018-01-13T12:29:50.931Z,19.92
2018-01-13T12:32:17.410Z,19.27
2018-01-13T12:34:44.030Z,17.65
2018-01-13T12:37:11.294Z,18.35
2018-01-13T12:39:38.698Z,18.77
2018-01-13T12:42:05.214Z,17.02
2018-01-13T12:44:31.920Z,17.80
2018-01-13T12:46:59.205Z,18.77
2018-01-13T12:49:25.734Z,17.15
2018-01-13T12:51:52.580Z,8.82
2018-01-13T12:54:19.250Z,20.23
2018-01-13T12:56:45.758Z,14.57
2018-01-13T12:59:12.368Z,16.87
2018-01-13T13:01:38.850Z,18.33
2018-01-13T13:04:05.833Z,18.33
2018-01-13T13:06:32.346Z,19.02
2018-01-13T13:08:59.653Z,19.95
2018-01-13T13:11:26.146Z,18.75
2018-01-13T13:13:52.733Z,19.08
2018-01-13T13:16:19.311Z,16.83
2018-01-13T13:18:46.563Z,17.52
2018-01-13T13:21:13.850Z,18.20
2018-01-13T13:23:40.319Z,9.77
2018-01-13T13:26:06.840Z,15.40
2018-01-13T13:28:33.393Z,14.73
2018-01-13T13:31:01.883Z,16.83
2018-01-13T13:33:31.022Z,18.50
2018-01-13T13:35:58.040Z,14.63
2018-01-13T13:38:24.550Z,17.70
2018-01-13T13:40:51.189Z,13.95
2018-01-13T13:43:17.732Z,8.35
2018-01-13T13:45:44.283Z,12.23
2018-01-13T13:48:10.763Z,10.48
2018-01-13T13:50:37.330Z,16.50
2018-01-13T13:53:03.967Z,13.38
2018-01-13T13:55:30.456Z,15.15
2018-01-13T13:57:57.783Z,9.15
2018-01-13T14:00:24.259Z,12.20
2018-01-13T14:02:51.037Z,13.45
2018-01-13T14:05:17.564Z,12.55
2018-01-13T14:07:44.823Z,12.95
2018-01-13T14:10:11.304Z,12.25
2018-01-13T14:12:40.173Z,10.15
2018-01-13T14:15:08.233Z,10.70
2018-01-13T14:20:31.524Z,10.20
2018-01-13T14:22:59.275Z,8.80
2018-01-13T14:28:29.414Z,8.35
2018-01-13T14:30:55.824Z,12.95
2018-01-13T14:33:22.478Z,10.95
2018-01-13T14:35:49.098Z,8.07
2018-01-13T14:38:15.727Z,12.45
2018-01-13T14:43:46.652Z,9.20
2018-01-13T14:46:13.585Z,11.00
2018-01-13T14:48:40.863Z,14.75
2018-01-13T14:51:07.985Z,8.95
2018-01-13T14:53:35.268Z,7.10
2018-01-13T14:56:01.913Z,6.97
2018-01-13T14:58:28.353Z,10.10
2018-01-13T15:00:54.901Z,6.10
2018-01-13T15:03:21.361Z,7.50
2018-01-13T15:05:48.528Z,9.48
2018-01-13T15:08:15.741Z,6.78
2018-01-13T15:10:42.432Z,8.13
2018-01-13T15:13:08.835Z,8.88
2018-01-13T15:15:35.267Z,10.93
2018-01-13T15:18:03.610Z,10.35
2018-01-13T15:20:30.478Z,8.40
2018-01-13T15:22:57.201Z,10.05
2018-01-13T15:25:23.677Z,14.35
2018-01-13T15:27:50.942Z,10.10
2018-01-13T15:30:17.471Z,9.35
2018-01-13T15:32:44.011Z,13.05
2018-01-13T15:35:10.579Z,9.68
2018-01-13T15:37:37.295Z,11.48
2018-01-13T15:40:03.806Z,7.65
2018-01-13T15:42:30.337Z,8.02
2018-01-13T15:44:57.521Z,10.40
2018-01-13T15:47:23.949Z,7.28
2018-01-13T15:49:50.454Z,12.18
2018-01-13T15:52:16.899Z,12.73
2018-01-13T15:54:43.716Z,8.00
2018-01-13T15:57:10.941Z,6.50
2018-01-13T15:59:37.423Z,14.52
2018-01-13T16:02:03.871Z,11.88
2018-01-13T16:04:30.271Z,11.35
2018-01-13T16:09:54.193Z,14.93
2018-01-13T16:12:20.709Z,7.72
2018-01-13T16:14:47.124Z,9.75
2018-01-13T16:17:14.305Z,13.27
2018-01-13T16:19:40.822Z,13.57
2018-01-13T16:22:07.326Z,16.73
2018-01-13T16:24:33.810Z,13.18
2018-01-13T16:27:00.255Z,8.43
2018-01-13T16:29:26.720Z,8.93
2018-01-13T16:31:53.173Z,11.82
2018-01-13T16:34:20.412Z,10.05
2018-01-13T16:36:46.834Z,8.35
2018-01-13T16:39:14.101Z,14.13
2018-01-13T16:41:41.294Z,12.50
2018-01-13T16:44:07.814Z,13.35
2018-01-13T16:46:34.227Z,10.48
2018-01-13T16:49:01.381Z,10.23
2018-01-13T16:51:28.585Z,17.92
2018-01-13T16:53:55.000Z,15.23
2018-01-13T16:56:21.534Z,17.15
2018-01-13T16:58:48.047Z,16.27
2018-01-13T17:01:14.448Z,12.48
2018-01-13T17:03:40.936Z,5.37
2018-01-13T17:06:07.382Z,10.18
2018-01-13T17:08:33.820Z,11.10
2018-01-13T17:11:00.361Z,9.90
2018-01-13T17:13:26.821Z,17.30
2018-01-13T17:15:54.041Z,12.50
2018-01-13T17:18:20.487Z,11.18
2018-01-13T17:20:46.915Z,11.38
2018-01-13T17:23:13.367Z,9.27
2018-01-13T17:25:39.830Z,11.80
2018-01-13T17:28:06.252Z,10.73
2018-01-13T17:30:33.448Z,11.98
2018-01-13T17:32:59.937Z,13.38
2018-01-13T17:35:27.093Z,9.90
2018-01-13T17:37:53.589Z,10.63
2018-01-13T17:40:20.157Z,13.62
2018-01-13T17:42:46.807Z,10.65
2018-01-13T17:45:13.348Z,11.45
2018-01-13T17:47:39.835Z,11.63
2018-01-13T17:50:06.307Z,10.25
2018-01-13T17:52:32.853Z,11.80
2018-01-13T17:54:59.297Z,10.50
2018-01-13T17:57:25.793Z,10.90
2018-01-13T17:59:52.986Z,9.82
2018-01-13T18:02:19.457Z,13.27
2018-01-13T18:04:47.991Z,7.93
2018-01-13T18:07:15.313Z,13.50
2018-01-13T18:09:41.953Z,13.27
2018-01-13T18:13:29.339Z,13.95
2018-01-13T18:15:55.833Z,15.43
2018-01-13T18:18:22.459Z,13.73
2018-01-13T18:21:09.764Z,15.38
2018-01-13T18:32:55.120Z,15.35
2018-01-13T18:35:22.448Z,9.20
2018-01-13T18:37:49.039Z,15.05
2018-01-13T18:40:15.605Z,10.02
2018-01-13T18:42:42.094Z,14.23
2018-01-13T18:45:08.712Z,14.27
2018-01-13T18:47:35.230Z,19.58
2018-01-13T18:50:19.668Z,15.23
2018-01-13T18:52:46.252Z,15.77
2018-01-13T18:55:12.731Z,18.48
2018-01-13T18:57:39.321Z,16.50
2018-01-13T19:00:06.062Z,9.15
2018-01-13T19:02:32.549Z,15.20
2018-01-13T19:04:59.163Z,10.00
2018-01-13T19:07:25.689Z,12.73
2018-01-13T19:09:52.170Z,13.70
2018-01-13T19:12:18.701Z,12.50
2018-01-13T19:14:45.316Z,12.48
2018-01-13T19:17:11.916Z,13.45
2018-01-13T19:19:38.495Z,10.93
2018-01-13T19:22:05.019Z,9.60
2018-01-13T19:24:31.511Z,8.30
2018-01-13T19:26:58.169Z,10.05
2018-01-13T19:29:24.641Z,10.88
2018-01-13T19:31:51.103Z,11.05
2018-01-13T19:34:18.352Z,14.52
2018-01-13T19:36:45.564Z,14.48
2018-01-13T19:39:12.242Z,14.10
2018-01-13T19:41:39.564Z,17.35
2018-01-13T19:44:06.163Z,8.73
2018-01-13T19:46:33.514Z,16.83
2018-01-13T19:49:01.084Z,17.05
2018-01-13T19:51:27.581Z,8.60
2018-01-13T19:53:54.730Z,14.60
2018-01-13T19:56:21.936Z,10.85
2018-01-13T19:58:48.560Z,10.68
2018-01-13T20:01:15.122Z,10.88
2018-01-13T20:03:41.590Z,13.73
2018-01-13T20:06:08.791Z,8.40
2018-01-13T20:08:35.564Z,11.05
2018-01-13T20:11:02.075Z,10.82
2018-01-13T20:13:28.551Z,8.68
2018-01-13T20:15:55.034Z,8.10
2018-01-13T20:18:21.647Z,8.13
2018-01-13T20:20:48.962Z,7.20
2018-01-13T20:23:15.454Z,8.85
2018-01-13T20:25:41.992Z,9.57
2018-01-13T20:28:08.464Z,7.45
2018-01-13T20:30:34.947Z,7.80
2018-01-13T20:33:01.464Z,7.93
2018-01-13T20:35:27.983Z,14.40
2018-01-13T20:37:55.220Z,6.07
2018-01-13T20:40:21.794Z,10.02
2018-01-13T20:42:48.252Z,9.93
2018-01-13T20:45:14.743Z,12.93
2018-01-13T20:47:41.965Z,6.40
2018-01-13T20:50:08.465Z,5.93
2018-01-13T20:52:34.979Z,9.90
2018-01-13T20:55:01.459Z,9.60
2018-01-13T20:57:28.039Z,6.57
2018-01-13T20:59:54.595Z,9.27
2018-01-13T21:02:21.098Z,6.30
2018-01-13T21:04:48.315Z,12.10
2018-01-13T21:07:14.828Z,7.70
2018-01-13T21:09:42.006Z,12.10
2018-01-13T21:12:08.492Z,8.40
2018-01-13T21:14:34.992Z,6.95
2018-01-13T21:17:01.609Z,6.40
2018-01-13T21:19:28.081Z,8.32
2018-01-13T21:21:55.416Z,7.20
2018-01-13T21:24:21.991Z,9.85
2018-01-13T21:26:48.547Z,6.70
2018-01-13T21:29:15.123Z,12.30
2018-01-13T21:31:41.617Z,6.43
2018-01-13T21:34:08.187Z,10.30
2018-01-13T21:36:34.652Z,11.15
2018-01-13T21:39:01.124Z,7.87
2018-01-13T21:41:27.674Z,11.18
2018-01-13T21:43:54.361Z,7.05
2018-01-13T21:46:20.866Z,13.20
2018-01-13T21:48:47.384Z,11.80
2018-01-13T21:51:13.904Z,9.40
2018-01-13T21:53:40.382Z,7.25
2018-01-13T21:56:07.633Z,8.10
2018-01-13T21:58:35.029Z,8.63
2018-01-13T22:01:01.600Z,8.40
2018-01-13T22:03:28.100Z,12.63
2018-01-13T22:05:54.615Z,12.55
2018-01-13T22:08:21.165Z,12.85
2018-01-13T22:10:47.679Z,11.30
2018-01-13T22:13:15.025Z,7.57
2018-01-13T22:15:42.215Z,9.43
2018-01-13T22:18:08.745Z,12.07
2018-01-13T22:20:35.242Z,8.85
2018-01-13T22:23:02.469Z,8.10
2018-01-13T22:25:29.100Z,9.98
2018-01-13T22:27:55.645Z,7.50
2018-01-13T22:30:22.163Z,9.73
2018-01-13T22:32:48.745Z,7.20
2018-01-13T22:35:15.335Z,7.75
2018-01-13T22:37:41.896Z,8.90
2018-01-13T22:40:08.327Z,7.00
2018-01-13T22:42:34.808Z,6.07
2018-01-13T22:45:01.331Z,5.72
2018-01-13T22:47:27.898Z,8.60
2018-01-13T22:49:54.344Z,7.20
2018-01-13T22:52:21.076Z,7.65
2018-01-13T22:54:47.713Z,6.55
2018-01-13T22:57:14.231Z,6.72
2018-01-13T22:59:40.780Z,7.87
2018-01-13T23:02:07.268Z,9.05
2018-01-13T23:04:34.513Z,4.65
2018-01-13T23:07:01.791Z,5.30
2018-01-13T23:09:28.255Z,6.85
2018-01-13T23:11:54.878Z,7.50
2018-01-13T23:14:21.448Z,8.85
2018-01-13T23:16:47.902Z,10.05
2018-01-13T23:19:15.157Z,9.32
2018-01-13T23:21:42.441Z,11.48
2018-01-13T23:24:08.946Z,10.02
2018-01-13T23:26:36.742Z,10.07
2018-01-13T23:29:03.204Z,13.60
2018-01-13T23:31:29.807Z,11.93
2018-01-13T23:33:56.290Z,7.20
2018-01-13T23:36:22.810Z,14.18
2018-01-13T23:38:49.243Z,9.35
2018-01-13T23:41:15.758Z,11.35
2018-01-13T23:43:42.254Z,13.35
2018-01-13T23:46:09.638Z,8.18
2018-01-13T23:48:36.212Z,13.02
2018-01-13T23:51:02.947Z,14.43
2018-01-13T23:53:29.527Z,16.10
2018-01-13T23:55:56.005Z,12.73
2018-01-13T23:58:22.508Z,16.17
